Time;durP1;ratioP1;P1;durP2;ratioP2;P2;SDS_P1;SDS_P2;PMS_P1;PMS_P2;Temp;Humidity;BMP_temperature;BMP_pressure;BME280_temperature;BME280_humidity;BME280_pressure;Samples;Min_cycle;Max_cycle;Signal;HPM_P1;HPM_P2
2022/11/07 00:00:35;;;;;;;11.23;2.00;;;;;;;9.32;80.73;98607.25;4983123;28;20082;-52
2022/11/07 00:03:02;;;;;;;8.32;1.35;;;;;;;9.31;80.71;98610.72;4980888;28;20074;-53
2022/11/07 00:05:28;;;;;;;8.30;1.25;;;;;;;9.35;80.73;98618.38;4981045;28;20555;-54
2022/11/07 00:07:55;;;;;;;8.43;1.15;;;;;;;9.35;80.38;98613.19;4980987;28;20058;-50
2022/11/07 00:10:21;;;;;;;5.43;1.05;;;;;;;9.36;80.63;98621.81;4980998;28;20137;-54
2022/11/07 00:12:48;;;;;;;5.82;0.98;;;;;;;9.37;80.64;98620.94;4979887;28;20058;-53
2022/11/07 00:15:15;;;;;;;8.98;1.63;;;;;;;9.37;80.34;98626.09;4979643;28;20050;-53
2022/11/07 00:17:41;;;;;;;9.13;1.02;;;;;;;9.36;80.45;98624.41;4979972;28;20137;-51
2022/11/07 00:20:08;;;;;;;7.32;1.58;;;;;;;9.35;80.56;98622.69;4981251;28;20108;-54
2022/11/07 00:22:35;;;;;;;9.13;1.55;;;;;;;9.33;80.47;98624.47;4977291;28;20078;-50
2022/11/07 00:25:01;;;;;;;10.15;1.25;;;;;;;9.35;80.18;98633.00;4979485;28;20137;-54
2022/11/07 00:27:28;;;;;;;9.95;1.63;;;;;;;9.31;80.40;98627.06;4979573;28;20145;-52
2022/11/07 00:29:55;;;;;;;13.43;1.48;;;;;;;9.33;79.89;98625.31;4980666;28;20058;-53
2022/11/07 00:32:21;;;;;;;17.30;2.05;;;;;;;9.34;80.56;98627.00;4979547;28;20514;-52
2022/11/07 00:34:48;;;;;;;6.90;1.42;;;;;;;9.32;80.28;98622.75;4985483;28;20053;-51
2022/11/07 00:37:14;;;;;;;7.25;1.35;;;;;;;9.30;80.11;98630.53;4981705;28;20056;-50
2022/11/07 00:39:41;;;;;;;10.85;1.33;;;;;;;9.30;79.93;98627.09;4982069;28;20576;-52
2022/11/07 00:42:08;;;;;;;9.90;1.77;;;;;;;9.29;80.06;98628.00;4979745;28;20050;-50
2022/11/07 00:44:35;;;;;;;11.45;1.13;;;;;;;9.26;79.95;98629.75;4975297;28;20104;-50
2022/11/07 00:47:01;;;;;;;9.02;1.55;;;;;;;9.25;80.84;98633.22;4983173;28;20054;-53
2022/11/07 00:49:28;;;;;;;13.85;2.55;;;;;;;9.22;80.16;98638.44;4984411;28;20387;-52
2022/11/07 00:51:54;;;;;;;6.15;1.00;;;;;;;9.23;80.20;98645.28;4975498;28;20050;-51
2022/11/07 00:54:21;;;;;;;10.52;1.08;;;;;;;9.21;79.67;98641.91;4972935;28;20073;-51
2022/11/07 00:56:48;;;;;;;5.80;1.85;;;;;;;9.21;80.09;98634.16;4980282;28;20422;-53
2022/11/07 00:59:14;;;;;;;10.52;1.13;;;;;;;9.20;80.15;98647.97;4976476;28;20177;-54
2022/11/07 01:01:41;;;;;;;8.90;1.13;;;;;;;9.19;80.21;98643.66;4980166;28;20043;-52
2022/11/07 01:06:58;;;;;;;11.32;1.27;;;;;;;9.20;80.43;98647.97;4979780;28;20088;-53
2022/11/07 01:09:25;;;;;;;6.63;2.28;;;;;;;9.20;80.13;98645.38;4982111;28;20668;-53
2022/11/07 01:11:52;;;;;;;7.32;1.20;;;;;;;9.18;80.09;98636.78;4978633;28;20050;-52
2022/11/07 01:14:20;;;;;;;5.22;0.90;;;;;;;9.21;79.79;98641.03;4981234;28;20064;-52
2022/11/07 01:16:47;;;;;;;16.23;0.90;;;;;;;9.21;80.32;98635.88;4979972;28;20130;-52
2022/11/07 01:19:15;;;;;;;8.32;1.42;;;;;;;9.21;80.12;98651.38;4982244;28;20054;-50
2022/11/07 01:21:42;;;;;;;6.57;0.98;;;;;;;9.20;80.04;98645.38;4969749;28;20051;-53
2022/11/07 01:24:11;;;;;;;8.48;1.33;;;;;;;9.21;80.13;98646.22;4969714;28;20105;-54
2022/11/07 01:26:39;;;;;;;6.65;1.10;;;;;;;9.20;80.42;98637.63;4978051;28;20066;-52
2022/11/07 01:29:07;;;;;;;11.43;1.17;;;;;;;9.21;80.44;98639.31;4985835;28;20134;-53
2022/11/07 01:31:34;;;;;;;16.27;1.65;;;;;;;9.21;80.40;98641.91;4985587;28;20129;-54
2022/11/07 01:34:00;;;;;;;7.70;1.27;;;;;;;9.22;79.84;98643.59;4978110;28;20050;-50
2022/11/07 01:36:27;;;;;;;12.32;1.20;;;;;;;9.22;80.09;98643.59;4987625;28;20043;-54
2022/11/07 01:38:54;;;;;;;10.05;1.73;;;;;;;9.23;80.09;98634.97;4985886;28;20458;-51
2022/11/07 01:41:24;;;;;;;10.77;1.00;;;;;;;9.21;80.31;98636.75;4988405;28;20043;-54
2022/11/07 01:46:51;;;;;;;9.50;1.98;;;;;;;9.24;80.27;98652.19;5065782;27;20403;-53
2022/11/07 01:52:18;;;;;;;15.10;1.70;;;;;;;9.51;79.30;98655.09;5058171;27;20418;-53
2022/11/07 01:57:34;;;;;;;9.30;2.60;;;;;;;9.31;80.35;98672.72;5089469;27;20121;-54
2022/11/07 02:00:03;;;;;;;14.68;1.40;;;;;;;9.34;80.62;98672.66;5073943;28;20072;-53
2022/11/07 02:02:31;;;;;;;9.30;0.65;;;;;;;9.35;80.42;98674.34;5061978;28;20132;-53
2022/11/07 02:05:01;;;;;;;9.25;2.45;;;;;;;9.38;80.59;98674.31;5080954;28;20131;-52
2022/11/07 02:07:28;;;;;;;7.47;2.05;;;;;;;9.37;80.57;98672.59;5082309;28;20052;-54
2022/11/07 02:09:55;;;;;;;9.32;1.33;;;;;;;9.41;80.08;98674.25;5075140;28;20052;-55
2022/11/07 02:12:23;;;;;;;11.63;0.98;;;;;;;9.39;80.29;98682.03;5075902;28;20055;-53
2022/11/07 02:14:50;;;;;;;11.05;1.00;;;;;;;9.39;80.27;98681.16;5052232;28;20127;-53
2022/11/07 02:17:17;;;;;;;8.55;1.80;;;;;;;9.37;80.25;98683.81;5060211;28;20080;-52
2022/11/07 02:19:51;;;;;;;10.48;1.35;;;;;;;9.37;80.04;98685.53;5072702;28;20068;-53
2022/11/07 02:25:02;;;;;;;7.85;0.70;;;;;;;9.34;80.25;98685.59;5055289;28;20754;-51
2022/11/07 02:27:30;;;;;;;6.45;1.02;;;;;;;9.33;80.04;98686.47;5037983;28;20449;-53
2022/11/07 02:30:03;;;;;;;10.73;1.45;;;;;;;9.31;80.44;98690.81;5054766;28;20063;-55
2022/11/07 02:32:29;;;;;;;12.68;1.52;;;;;;;9.30;80.11;98689.09;5051863;28;20551;-54
2022/11/07 02:34:59;;;;;;;5.80;0.90;;;;;;;9.30;80.02;98677.06;5054592;28;20082;-54
2022/11/07 02:37:30;;;;;;;6.75;0.50;;;;;;;9.28;80.35;98683.97;5054958;28;20411;-52
2022/11/07 02:39:59;;;;;;;5.28;0.73;;;;;;;9.27;80.27;98682.28;5056399;28;20041;-54
2022/11/07 02:42:42;;;;;;;7.32;1.15;;;;;;;9.25;79.97;98679.72;5076725;28;20049;-53
2022/11/07 02:45:17;;;;;;;8.77;1.10;;;;;;;9.22;80.29;98679.78;5078592;28;20048;-52
2022/11/07 02:47:44;;;;;;;10.75;1.30;;;;;;;9.20;80.05;98681.56;5077410;28;20139;-51
2022/11/07 02:50:13;;;;;;;9.05;0.70;;;;;;;9.19;80.22;98685.00;5076675;28;20072;-53
2022/11/07 02:52:40;;;;;;;5.30;0.60;;;;;;;9.17;80.05;98681.59;5054812;28;20192;-51
2022/11/07 02:55:08;;;;;;;8.40;1.23;;;;;;;9.19;80.26;98679.81;5078707;28;20060;-53
2022/11/07 02:57:34;;;;;;;5.22;1.25;;;;;;;9.19;80.19;98684.16;5079846;28;20131;-52
2022/11/07 03:00:02;;;;;;;18.58;1.73;;;;;;;9.19;79.98;98679.81;5075216;28;20131;-53
2022/11/07 03:02:29;;;;;;;6.82;0.95;;;;;;;9.19;80.62;98685.00;5076741;28;20047;-56
2022/11/07 03:04:56;;;;;;;7.70;0.63;;;;;;;9.21;80.44;98677.22;5074813;28;20055;-53
2022/11/07 03:07:22;;;;;;;9.98;1.48;;;;;;;9.22;80.21;98681.53;5074411;28;20521;-53
2022/11/07 03:09:49;;;;;;;21.70;1.88;;;;;;;9.24;80.29;98672.84;5075793;28;20083;-54
2022/11/07 03:12:16;;;;;;;8.90;1.58;;;;;;;9.26;80.71;98681.41;5065850;28;20088;-53
2022/11/07 03:14:42;;;;;;;6.25;1.27;;;;;;;9.29;80.39;98679.66;5068224;28;20048;-52
2022/11/07 03:17:09;;;;;;;7.93;1.33;;;;;;;9.31;80.21;98670.13;5072227;28;20105;-53
2022/11/07 03:19:35;;;;;;;8.55;0.65;;;;;;;9.32;80.59;98664.09;5072908;28;20067;-51
2022/11/07 03:22:02;;;;;;;6.85;1.30;;;;;;;9.34;80.80;98667.50;5063476;28;20049;-53
2022/11/07 03:24:29;;;;;;;9.30;1.80;;;;;;;9.37;80.64;98672.59;5074725;28;20123;-53
2022/11/07 03:26:55;;;;;;;10.43;0.98;;;;;;;9.39;80.67;98670.81;5075399;28;20499;-51
2022/11/07 03:29:22;;;;;;;11.38;1.25;;;;;;;9.42;80.74;98660.44;5073958;28;20606;-53
2022/11/07 03:31:48;;;;;;;8.65;1.17;;;;;;;9.44;80.69;98674.19;5072057;28;20463;-53
2022/11/07 03:34:15;;;;;;;4.82;1.50;;;;;;;9.45;80.75;98673.31;5074470;28;20488;-54
2022/11/07 03:36:41;;;;;;;9.63;1.55;;;;;;;9.46;80.47;98672.41;5064354;28;20124;-52
2022/11/07 03:39:08;;;;;;;6.43;0.63;;;;;;;9.47;80.55;98676.72;5061743;28;21991;-54
2022/11/07 03:41:35;;;;;;;5.75;1.35;;;;;;;9.50;81.11;98688.72;5056524;28;20557;-53
2022/11/07 03:44:01;;;;;;;4.78;1.10;;;;;;;9.51;80.67;98680.94;5057030;28;20076;-54
2022/11/07 03:46:28;;;;;;;3.65;0.98;;;;;;;9.54;81.11;98684.34;5060332;28;20148;-50
2022/11/07 03:48:55;;;;;;;4.63;0.52;;;;;;;9.55;81.11;98691.22;5065492;28;20135;-53
2022/11/07 03:51:21;;;;;;;6.68;1.27;;;;;;;9.58;81.31;98685.97;5062600;28;20139;-53
2022/11/07 03:53:48;;;;;;;6.18;0.63;;;;;;;9.59;80.54;98682.53;5060949;28;20064;-54
2022/11/07 03:56:14;;;;;;;8.85;0.95;;;;;;;9.60;81.12;98681.63;5061406;28;20491;-53
2022/11/07 03:58:41;;;;;;;9.38;0.93;;;;;;;9.60;80.74;98685.03;5057278;28;20382;-52
2022/11/07 04:01:09;;;;;;;6.82;0.65;;;;;;;9.60;80.94;98679.88;5061693;28;20599;-55
2022/11/07 04:03:36;;;;;;;10.32;1.58;;;;;;;9.62;80.74;98672.09;5063191;28;20076;-52
2022/11/07 04:06:02;;;;;;;8.02;0.77;;;;;;;9.65;80.49;98666.88;5056342;28;20135;-54
2022/11/07 04:08:29;;;;;;;8.10;0.85;;;;;;;9.67;80.67;98670.28;5059052;28;20037;-51
2022/11/07 04:10:56;;;;;;;7.05;0.52;;;;;;;9.68;81.06;98664.22;5053432;28;20052;-53
2022/11/07 04:18:58;;;;;;;8.60;1.02;;;;;;;9.73;80.83;98664.97;5059595;28;20052;-52
2022/11/07 04:21:25;;;;;;;6.43;1.25;;;;;;;9.76;81.56;98664.91;5062241;28;20055;-52
2022/11/07 04:23:51;;;;;;;8.48;1.15;;;;;;;9.78;81.71;98667.47;5056278;28;20132;-51
2022/11/07 04:29:04;;;;;;;7.25;1.35;;;;;;;9.84;81.12;98674.22;5059074;28;20139;-55
2022/11/07 04:31:31;;;;;;;13.70;1.92;;;;;;;9.87;81.62;98676.75;5058694;28;20083;-53
2022/11/07 04:33:58;;;;;;;5.45;0.93;;;;;;;9.86;81.02;98670.72;5052057;28;20052;-55
2022/11/07 04:36:24;;;;;;;7.30;0.80;;;;;;;9.90;81.38;98666.34;5059779;28;20656;-55
2022/11/07 04:38:51;;;;;;;6.65;1.10;;;;;;;9.93;80.95;98671.44;5056526;28;20045;-53
2022/11/07 04:41:20;;;;;;;12.10;1.35;;;;;;;9.95;81.27;98672.25;5054841;28;20044;-53
2022/11/07 04:43:47;;;;;;;5.18;0.75;;;;;;;9.96;81.28;98673.94;5055994;28;20145;-52
2022/11/07 04:46:15;;;;;;;8.20;1.08;;;;;;;9.97;81.25;98670.47;5056101;28;20147;-52
2022/11/07 04:48:43;;;;;;;11.23;1.60;;;;;;;10.00;81.66;98672.16;5062588;28;20076;-53
2022/11/07 04:51:17;;;;;;;11.73;1.75;;;;;;;10.01;81.21;98681.63;5062847;28;20123;-53
2022/11/07 04:53:44;;;;;;;5.32;1.17;;;;;;;10.05;81.29;98677.22;5071009;28;20123;-54
2022/11/07 04:56:10;;;;;;;4.50;1.30;;;;;;;10.05;81.28;98672.03;5058756;28;20053;-54
2022/11/07 04:58:37;;;;;;;15.75;0.85;;;;;;;10.08;81.64;98679.72;5040369;28;20681;-53
2022/11/07 05:01:04;;;;;;;8.77;1.20;;;;;;;10.10;81.01;98677.97;5041054;28;20073;-51
2022/11/07 05:03:30;;;;;;;11.77;1.13;;;;;;;10.11;80.86;98679.66;5040215;28;20625;-56
2022/11/07 05:05:57;;;;;;;17.75;1.23;;;;;;;10.09;81.44;98676.25;5056662;28;20057;-54
2022/11/07 05:08:24;;;;;;;7.25;1.77;;;;;;;10.13;81.20;98677.88;5058583;28;20040;-54
2022/11/07 05:10:50;;;;;;;10.93;1.80;;;;;;;10.14;81.23;98684.78;5061819;28;20040;-55
2022/11/07 05:13:17;;;;;;;6.95;1.38;;;;;;;10.16;81.76;98691.63;5061061;28;20057;-53
2022/11/07 05:15:44;;;;;;;8.20;1.20;;;;;;;10.20;80.88;98694.13;5057537;28;20045;-53
2022/11/07 05:18:10;;;;;;;9.52;1.10;;;;;;;10.19;80.96;98688.09;5054472;28;20060;-53
2022/11/07 05:20:38;;;;;;;14.27;2.28;;;;;;;10.23;81.34;98683.72;5059165;28;20053;-54
2022/11/07 05:23:21;;;;;;;5.30;1.15;;;;;;;10.26;81.30;98684.50;5055347;28;20461;-54
2022/11/07 05:25:49;;;;;;;9.15;1.65;;;;;;;10.27;81.75;98685.34;5057313;28;20567;-55
2022/11/07 05:28:19;;;;;;;14.50;1.77;;;;;;;10.29;81.24;98687.00;5056504;28;20076;-52
2022/11/07 05:30:59;;;;;;;9.10;1.45;;;;;;;10.32;81.11;98682.63;5058476;28;20059;-52
2022/11/07 05:33:25;;;;;;;11.52;1.00;;;;;;;10.33;81.42;98674.00;5058970;28;20131;-52
2022/11/07 05:35:52;;;;;;;9.73;1.17;;;;;;;10.34;81.13;98679.13;5055301;28;20055;-51
2022/11/07 05:38:19;;;;;;;11.13;1.23;;;;;;;10.36;81.00;98684.25;5061258;28;20556;-55
2022/11/07 05:40:45;;;;;;;10.35;1.13;;;;;;;10.36;81.21;98679.09;5057427;28;20041;-51
2022/11/07 05:43:13;;;;;;;7.72;1.23;;;;;;;10.36;80.96;98686.84;5062292;28;20140;-54
2022/11/07 05:45:40;;;;;;;14.02;1.38;;;;;;;10.39;81.43;98689.38;5056249;28;20055;-51
2022/11/07 05:48:10;;;;;;;15.90;1.58;;;;;;;10.41;81.66;98688.44;5059638;28;20076;-52
2022/11/07 05:50:37;;;;;;;14.45;1.63;;;;;;;10.40;81.96;98693.66;5054331;28;20049;-53
2022/11/07 05:53:04;;;;;;;5.35;1.00;;;;;;;10.42;81.86;98694.47;5058012;28;20486;-55
2022/11/07 05:55:31;;;;;;;12.88;1.45;;;;;;;10.41;81.76;98692.78;5055897;28;20532;-53
2022/11/07 05:57:57;;;;;;;8.88;1.15;;;;;;;10.44;81.63;98678.91;5057685;28;20056;-54
2022/11/07 06:00:32;;;;;;;15.95;1.92;;;;;;;10.39;81.61;98685.06;5052619;28;20062;-53
2022/11/07 06:02:59;;;;;;;9.50;1.67;;;;;;;10.45;81.05;98689.25;5059444;28;20127;-55
2022/11/07 06:05:27;;;;;;;14.13;1.15;;;;;;;10.44;81.29;98687.53;5056401;28;20044;-55
2022/11/07 06:07:54;;;;;;;11.63;1.55;;;;;;;10.45;81.01;98678.91;5055795;28;20132;-54
2022/11/07 06:10:22;;;;;;;15.70;1.52;;;;;;;10.44;81.12;98681.50;5057770;28;20164;-53
2022/11/07 06:12:58;;;;;;;13.32;1.67;;;;;;;10.46;81.55;98675.44;5054377;28;20722;-53
2022/11/07 06:15:27;;;;;;;12.43;1.38;;;;;;;10.46;81.23;98675.44;5058138;28;20136;-51
2022/11/07 06:17:54;;;;;;;10.63;1.20;;;;;;;10.48;81.17;98678.84;5051807;28;20140;-55
2022/11/07 06:20:20;;;;;;;8.85;1.23;;;;;;;10.46;82.45;98678.03;5055604;28;20123;-53
2022/11/07 06:22:47;;;;;;;15.13;2.22;;;;;;;10.50;80.93;98674.47;5054953;28;20139;-54
2022/11/07 06:25:14;;;;;;;10.60;1.63;;;;;;;10.50;81.06;98677.06;5060144;28;20062;-55
2022/11/07 06:27:40;;;;;;;12.68;2.13;;;;;;;10.52;81.32;98682.19;5055389;28;20055;-54
2022/11/07 06:30:07;;;;;;;12.35;1.20;;;;;;;10.53;81.62;98686.47;5049209;28;20051;-53
2022/11/07 06:32:35;;;;;;;13.38;1.40;;;;;;;10.54;81.41;98683.84;5051247;28;20143;-53
2022/11/07 06:35:02;;;;;;;11.25;1.27;;;;;;;10.54;81.46;98689.03;5053276;28;20141;-53
2022/11/07 06:37:28;;;;;;;10.00;1.35;;;;;;;10.56;80.96;98695.91;5058370;28;20102;-53
2022/11/07 06:39:55;;;;;;;12.30;1.45;;;;;;;10.58;82.00;98683.78;5051052;28;21214;-54
2022/11/07 06:42:24;;;;;;;15.43;1.67;;;;;;;10.59;81.34;98691.50;5053052;28;20084;-54
2022/11/07 06:44:50;;;;;;;9.95;1.52;;;;;;;10.58;82.14;98694.13;5050066;28;20036;-53
2022/11/07 06:47:17;;;;;;;15.63;1.48;;;;;;;10.60;81.05;98706.16;5058549;28;20539;-51
2022/11/07 06:49:44;;;;;;;13.13;1.15;;;;;;;10.58;81.92;98705.34;5056800;28;20155;-51
2022/11/07 06:52:10;;;;;;;8.90;2.67;;;;;;;10.59;82.05;98701.00;5056248;28;20444;-53
2022/11/07 06:54:37;;;;;;;12.85;2.17;;;;;;;10.62;81.62;98706.13;5056881;28;20068;-51
2022/11/07 06:57:03;;;;;;;17.35;1.73;;;;;;;10.62;81.85;98700.94;5060914;28;20526;-54
2022/11/07 06:59:30;;;;;;;11.73;1.65;;;;;;;10.63;81.27;98702.63;5058615;28;20073;-53
2022/11/07 07:01:56;;;;;;;14.00;1.60;;;;;;;10.63;81.40;98707.81;5058698;28;20123;-51
2022/11/07 07:04:23;;;;;;;12.10;1.00;;;;;;;10.67;81.15;98712.03;5050318;28;20040;-54
2022/11/07 07:06:50;;;;;;;12.73;1.23;;;;;;;10.67;81.10;98699.94;5060090;28;20410;-52
2022/11/07 07:09:16;;;;;;;12.35;1.30;;;;;;;10.66;82.28;98698.25;5057333;28;20044;-53
2022/11/07 07:11:44;;;;;;;11.52;1.80;;;;;;;10.71;81.02;98703.28;5063431;28;20138;-54
2022/11/07 07:14:11;;;;;;;7.68;1.27;;;;;;;10.74;80.80;98705.81;5065895;28;20518;-54
2022/11/07 07:16:37;;;;;;;15.30;1.95;;;;;;;10.76;81.13;98706.63;5062188;28;20128;-55
2022/11/07 07:19:04;;;;;;;18.17;2.17;;;;;;;10.79;81.07;98696.19;5062153;28;20659;-55
2022/11/07 07:21:32;;;;;;;15.27;1.73;;;;;;;10.79;81.10;98709.16;5066540;28;20048;-55
2022/11/07 07:23:59;;;;;;;12.80;2.00;;;;;;;10.82;80.88;98702.19;5065446;28;20151;-52
2022/11/07 07:26:25;;;;;;;12.63;1.30;;;;;;;10.84;81.00;98700.41;5064904;28;20143;-55
2022/11/07 07:28:52;;;;;;;11.13;1.17;;;;;;;10.86;81.10;98708.97;5062150;28;20172;-54
2022/11/07 07:31:23;;;;;;;16.15;1.60;;;;;;;10.88;81.76;98712.41;5061759;28;20136;-54
2022/11/07 07:33:50;;;;;;;11.30;2.17;;;;;;;10.92;81.89;98719.19;5058023;28;20564;-53
2022/11/07 07:36:17;;;;;;;17.20;1.67;;;;;;;10.93;81.36;98723.47;5056273;28;20083;-53
2022/11/07 07:38:47;;;;;;;15.18;2.22;;;;;;;10.90;80.95;98728.72;5057708;28;20048;-55
2022/11/07 07:41:14;;;;;;;10.35;1.98;;;;;;;10.96;82.22;98723.41;5054010;28;20131;-51
2022/11/07 07:43:40;;;;;;;10.48;1.83;;;;;;;10.98;81.71;98724.19;5052478;28;20076;-52
2022/11/07 07:46:09;;;;;;;8.95;0.90;;;;;;;11.01;80.83;98733.66;5050040;28;20063;-51
2022/11/07 07:48:36;;;;;;;12.05;1.30;;;;;;;11.00;81.19;98735.38;5047111;28;20153;-51
2022/11/07 07:51:03;;;;;;;11.40;2.05;;;;;;;11.04;80.91;98734.41;5049739;28;20140;-54
2022/11/07 07:53:29;;;;;;;10.02;1.67;;;;;;;11.05;82.09;98741.28;5050101;28;20040;-53
2022/11/07 07:55:57;;;;;;;10.13;1.45;;;;;;;11.08;81.88;98735.19;5056459;28;20078;-54
2022/11/07 07:58:25;;;;;;;11.55;1.55;;;;;;;11.10;80.89;98741.19;5059003;28;20048;-55
2022/11/07 08:00:53;;;;;;;17.80;1.25;;;;;;;11.15;81.91;98741.06;5052119;28;20076;-55
2022/11/07 08:03:19;;;;;;;10.73;1.00;;;;;;;11.15;82.16;98746.25;5056405;28;20043;-54
2022/11/07 08:05:52;;;;;;;9.18;1.20;;;;;;;11.17;82.14;98747.06;5056172;28;20151;-56
2022/11/07 08:08:20;;;;;;;13.30;1.60;;;;;;;11.19;81.51;98737.50;5055838;28;20551;-55
2022/11/07 08:10:52;;;;;;;14.25;1.25;;;;;;;11.22;81.21;98736.56;5055085;28;20051;-53
2022/11/07 08:13:21;;;;;;;15.05;1.65;;;;;;;11.27;81.15;98735.56;5056040;28;20040;-54
2022/11/07 08:15:48;;;;;;;11.18;1.48;;;;;;;11.28;81.81;98742.44;5049927;28;20510;-55
2022/11/07 08:18:15;;;;;;;9.45;1.35;;;;;;;11.28;81.39;98745.03;5056848;28;20114;-54
2022/11/07 08:20:42;;;;;;;9.60;0.90;;;;;;;11.33;81.84;98739.72;5054624;28;20063;-53
2022/11/07 08:23:09;;;;;;;9.98;1.38;;;;;;;11.34;81.80;98738.00;5054935;28;20163;-55
2022/11/07 08:25:58;;;;;;;10.60;1.48;;;;;;;11.37;80.75;98743.94;5053801;28;20044;-55
2022/11/07 08:28:27;;;;;;;9.18;1.42;;;;;;;11.40;81.15;98750.78;5057233;28;20080;-56
2022/11/07 08:33:31;;;;;;;15.40;1.65;;;;;;;11.45;81.42;98756.69;5009842;28;20932;-55
2022/11/07 08:36:00;;;;;;;11.23;3.30;;;;;;;11.49;81.27;98755.72;4979548;28;20141;-54
2022/11/07 08:38:29;;;;;;;13.38;3.03;;;;;;;11.50;81.34;98749.66;4985974;28;20074;-55
2022/11/07 08:40:56;;;;;;;12.30;3.03;;;;;;;11.51;81.02;98748.75;4982725;28;20078;-55
2022/11/07 08:43:23;;;;;;;9.90;1.33;;;;;;;11.52;81.07;98749.59;4976383;28;20481;-54
2022/11/07 08:45:52;;;;;;;8.20;2.58;;;;;;;11.55;81.00;98747.75;4995804;28;20070;-54
2022/11/07 08:48:20;;;;;;;13.40;3.47;;;;;;;11.57;80.63;98747.72;4975862;28;20093;-54
2022/11/07 08:50:52;;;;;;;10.43;2.55;;;;;;;11.62;81.57;98755.38;4974457;28;20078;-53
2022/11/07 08:53:19;;;;;;;7.78;2.10;;;;;;;11.61;81.61;98764.91;4991093;28;20050;-54
2022/11/07 08:55:46;;;;;;;8.88;2.17;;;;;;;11.63;81.90;98767.44;4974819;28;20065;-52
2022/11/07 08:58:14;;;;;;;15.93;2.88;;;;;;;11.69;80.62;98764.69;4973481;28;20133;-53
2022/11/07 09:00:41;;;;;;;12.88;3.67;;;;;;;11.73;80.82;98762.84;4972445;28;20081;-54
2022/11/07 09:03:10;;;;;;;14.93;2.92;;;;;;;11.74;81.51;98760.22;4977945;28;20043;-54
2022/11/07 09:05:57;;;;;;;11.55;2.97;;;;;;;11.76;80.75;98755.81;4982784;28;20061;-55
2022/11/07 09:08:24;;;;;;;8.15;2.92;;;;;;;11.78;80.79;98755.78;4977604;28;20050;-54
2022/11/07 09:10:50;;;;;;;12.38;1.98;;;;;;;11.80;82.12;98760.06;4980423;28;20050;-53
2022/11/07 09:13:19;;;;;;;10.18;3.10;;;;;;;11.85;81.44;98756.47;4982871;28;20047;-54
2022/11/07 09:15:46;;;;;;;13.02;1.15;;;;;;;11.82;81.25;98758.25;4976769;28;20508;-54
2022/11/07 09:18:17;;;;;;;14.82;2.60;;;;;;;11.86;81.31;98769.41;4979006;28;20663;-54
2022/11/07 09:20:44;;;;;;;15.43;2.72;;;;;;;11.90;81.10;98767.56;4978247;28;20128;-56
2022/11/07 09:23:10;;;;;;;16.58;2.47;;;;;;;11.93;81.70;98759.69;4981677;28;20074;-56
2022/11/07 09:25:37;;;;;;;12.40;2.95;;;;;;;11.94;80.60;98761.38;4975372;28;20097;-54
2022/11/07 09:28:04;;;;;;;16.63;1.45;;;;;;;11.96;80.39;98770.00;4978281;28;20646;-55
2022/11/07 09:30:31;;;;;;;14.10;3.10;;;;;;;12.00;80.80;98769.00;4973480;28;20133;-54
2022/11/07 09:32:58;;;;;;;8.90;2.40;;;;;;;11.98;80.92;98768.19;4973221;28;20105;-51
2022/11/07 09:35:25;;;;;;;11.85;2.58;;;;;;;12.02;81.61;98771.56;4983161;28;20085;-54
2022/11/07 09:37:52;;;;;;;17.02;2.97;;;;;;;12.04;81.71;98767.16;4979947;28;20125;-54
2022/11/07 09:45:49;;;;;;;10.88;1.77;;;;;;;12.14;81.19;98767.75;5017582;28;20404;-54
2022/11/07 09:48:21;;;;;;;17.55;2.08;;;;;;;12.18;80.51;98770.22;5016040;28;20158;-55
2022/11/07 09:50:50;;;;;;;10.60;1.02;;;;;;;12.18;80.50;98772.81;5014535;28;20096;-53
2022/11/07 09:53:38;;;;;;;11.43;1.15;;;;;;;12.20;81.87;98765.00;5011994;28;20071;-56
2022/11/07 09:56:09;;;;;;;11.80;1.98;;;;;;;12.27;80.51;98769.13;5019626;28;20149;-54
2022/11/07 09:58:50;;;;;;;12.27;2.03;;;;;;;12.29;81.63;98772.50;5019930;28;20081;-55
2022/11/07 10:01:19;;;;;;;11.02;1.15;;;;;;;12.28;80.63;98765.63;5018474;28;20073;-55
2022/11/07 10:03:46;;;;;;;11.40;1.85;;;;;;;12.34;81.39;98769.78;5018834;28;20050;-54
2022/11/07 10:06:39;;;;;;;11.70;2.13;;;;;;;12.37;80.60;98768.81;5012620;28;20484;-55
2022/11/07 10:17:15;;;;;;;13.10;2.97;;;;;;;12.48;81.98;98777.13;5084034;27;20780;-55
2022/11/07 10:25:29;;;;;;;11.13;1.70;;;;;;;12.49;81.25;98784.00;5117421;27;20395;-54
2022/11/07 10:28:13;;;;;;;11.32;1.10;;;;;;;12.52;80.97;98776.13;5088269;28;20040;-55
2022/11/07 10:30:42;;;;;;;13.18;2.10;;;;;;;12.57;81.78;98776.81;5080534;28;20072;-56
2022/11/07 10:35:51;;;;;;;9.45;2.40;;;;;;;12.62;81.60;98778.44;5036663;28;20408;-55
2022/11/07 10:38:25;;;;;;;11.45;2.97;;;;;;;12.60;81.24;98781.09;5015397;28;20119;-53
2022/11/07 10:40:52;;;;;;;11.70;2.33;;;;;;;12.59;82.33;98781.97;5011990;28;20596;-55
2022/11/07 10:43:38;;;;;;;14.57;2.90;;;;;;;12.59;82.32;98785.44;5016250;28;20123;-56
2022/11/07 10:46:15;;;;;;;6.43;2.22;;;;;;;12.63;81.99;98786.19;5014152;28;20545;-54
2022/11/07 10:48:51;;;;;;;8.50;2.15;;;;;;;12.67;80.81;98781.75;5016259;28;20104;-54
2022/11/07 10:51:17;;;;;;;9.27;2.67;;;;;;;12.69;82.21;98779.94;5013681;28;20161;-57
2022/11/07 10:53:44;;;;;;;9.13;2.45;;;;;;;12.70;81.23;98779.06;5011250;28;20115;-55
2022/11/07 10:56:12;;;;;;;7.40;2.40;;;;;;;12.75;82.23;98773.69;5015206;28;20773;-57
2022/11/07 10:58:44;;;;;;;8.07;2.53;;;;;;;12.77;81.92;98767.53;5015430;28;20049;-52
2022/11/07 11:01:11;;;;;;;5.90;2.65;;;;;;;12.78;82.59;98774.47;5018715;28;20133;-54
2022/11/07 11:03:43;;;;;;;6.82;2.28;;;;;;;12.80;81.98;98775.25;5021088;28;20513;-53
2022/11/07 11:06:21;;;;;;;7.35;2.97;;;;;;;12.82;81.75;98770.00;5015438;28;20763;-57
2022/11/07 11:08:50;;;;;;;16.42;2.72;;;;;;;12.88;81.64;98774.16;5017896;28;20188;-46
2022/11/07 11:14:12;;;;;;;10.73;0.75;;;;;;;12.88;82.08;98768.97;5095439;27;20374;-58
2022/11/07 11:16:41;;;;;;;7.78;1.70;;;;;;;12.97;82.37;98779.06;5033383;28;20145;-56
2022/11/07 11:19:20;;;;;;;5.97;0.73;;;;;;;12.98;82.16;98767.75;5033567;28;20635;-57
2022/11/07 11:21:48;;;;;;;5.43;1.20;;;;;;;13.03;82.39;98771.03;5039826;28;20289;-55
2022/11/07 11:24:30;;;;;;;6.43;2.13;;;;;;;13.06;81.69;98773.56;5041666;28;20397;-57
2022/11/07 11:32:25;;;;;;;3.97;0.93;;;;;;;13.23;81.25;98774.72;5075261;27;20406;-58
2022/11/07 11:35:01;;;;;;;4.78;1.80;;;;;;;13.26;82.59;98785.03;5040661;28;20473;-58
2022/11/07 11:37:28;;;;;;;5.57;1.10;;;;;;;13.28;82.13;98774.56;5053853;28;20049;-58
2022/11/07 11:45:50;;;;;;;10.32;1.30;;;;;;;13.37;82.01;98782.91;5006263;28;20409;-57
2022/11/07 11:48:42;;;;;;;6.00;1.42;;;;;;;13.42;81.63;98776.69;4978320;28;20156;-57
2022/11/07 11:51:20;;;;;;;6.85;1.73;;;;;;;13.53;81.89;98772.00;4987510;28;20170;-59
2022/11/07 11:53:47;;;;;;;6.90;0.90;;;;;;;13.60;81.64;98777.81;4979079;28;20137;-59
2022/11/07 12:09:49;;;;;;;5.25;1.35;;;;;;;14.05;80.75;98772.75;5007527;27;20732;-58
2022/11/07 12:17:45;;;;;;;4.18;1.58;;;;;;;14.23;79.98;98758.19;5015186;28;20428;-58
2022/11/07 12:25:41;;;;;;;4.10;2.08;;;;;;;14.31;79.26;98752.66;5041006;28;20401;-58
2022/11/07 12:36:57;;;;;;;6.25;2.42;;;;;;;14.27;78.53;98726.75;5019537;28;20944;-59
2022/11/07 12:39:41;;;;;;;5.80;2.45;;;;;;;14.31;78.35;98743.09;5001496;28;20074;-59
2022/11/07 12:42:36;;;;;;;7.85;2.72;;;;;;;14.28;78.16;98732.78;5001162;28;20136;-59
2022/11/07 12:48:05;;;;;;;8.88;1.30;;;;;;;14.29;78.09;98731.06;5031814;28;20423;-58
2022/11/07 12:50:53;;;;;;;9.93;1.58;;;;;;;14.28;77.97;98738.00;5020482;28;20049;-58
2022/11/07 12:56:29;;;;;;;11.15;2.28;;;;;;;14.59;76.49;98751.59;5044162;27;20426;-58
2022/11/07 12:58:56;;;;;;;10.48;2.55;;;;;;;14.45;77.05;98750.38;5013549;28;20122;-59
2022/11/07 13:01:36;;;;;;;8.00;1.73;;;;;;;14.45;76.97;98754.75;5013840;28;20865;-58
2022/11/07 13:06:48;;;;;;;8.18;1.60;;;;;;;14.43;76.99;98748.72;5004251;28;20396;-58
2022/11/07 13:09:32;;;;;;;5.65;1.58;;;;;;;14.43;76.78;98751.34;4981471;28;20081;-57
2022/11/07 13:12:27;;;;;;;6.70;1.67;;;;;;;14.42;76.91;98749.66;4979849;28;20042;-57
2022/11/07 13:14:55;;;;;;;11.10;2.05;;;;;;;14.40;75.86;98742.72;4972988;28;20141;-59
2022/11/07 13:17:26;;;;;;;8.00;1.92;;;;;;;14.46;76.81;98738.19;4976221;28;20137;-58
2022/11/07 13:20:05;;;;;;;5.97;1.80;;;;;;;14.45;76.78;98729.53;4976682;28;20133;-58
2022/11/07 13:22:34;;;;;;;8.80;1.08;;;;;;;14.46;76.31;98730.38;4980667;28;20565;-58